Hyundai Independence — 3FDY6 — position and weather

sailwx.info

Track history (hours):
 
Tides and Currents Weather Stations Pressure Air Temp Water Temp Dewpoint Dewpoint Depression Visibility Wind Speed Wind Dir Waves Ship Positions

Hyundai Independence

Last reported at 2018-Jul-20 17:17 UTC. Time now 2018-Jul-22 14:29 UTC.
Position S 00°05' E 108°05'.

Length 275 m; beam 37 m; draft 14.02 m.

Type: Tanker. MMSI: 372424000.

Date/timePositionNaut miles runAvg speedWind from/ knotsBaromVisibWave heightAir tempDewpointWater temp
2018-Jul-20 17:17S 00°05' E 108°05'  
2018-Jul-14 21:19N 22°30' E 120°06'412.9
2018-Jul-14 21:00N 22°34' E 120°08'611.5
2018-Jul-14 20:28N 22°38' E 120°13'5 9.1
2018-Jul-14 19:59N 22°37' E 120°17'0 0.7
2018-Jul-14 19:22N 22°36' E 120°18'0 0.0
2018-Jul-14 18:59N 22°36' E 120°18'0 0.0
2018-Jul-14 18:27N 22°36' E 120°18'0 0.0
2018-Jul-14 18:00N 22°36' E 120°18'1 1.4
2018-Jul-14 17:29N 22°36' E 120°17'2 0.2
2018-Jul-14 10:27N 22°35' E 120°18'0 0.1
2018-Jul-14 09:57N 22°35' E 120°18'0 0.0
2018-Jul-14 09:27N 22°35' E 120°18'0 0.0
2018-Jul-14 08:57N 22°35' E 120°18'0 0.0
2018-Jul-14 08:27N 22°35' E 120°18'0 0.0
2018-Jul-14 07:57N 22°35' E 120°18'0 0.1
2018-Jul-14 06:57N 22°35' E 120°18'0 0.0
2018-Jul-14 05:33N 22°35' E 120°18'0 0.0
2018-Jul-14 05:21N 22°35' E 120°18'0 0.0
2018-Jul-14 04:51N 22°35' E 120°18'0 0.1
2018-Jul-14 04:15N 22°35' E 120°18'0 0.0
2018-Jul-14 01:33N 22°35' E 120°18'0 0.6
2018-Jul-14 01:27N 22°35' E 120°18'0 0.0
2018-Jul-14 00:57N 22°35' E 120°18'0 0.0
2018-Jul-14 00:27N 22°35' E 120°18'0 0.0
2018-Jul-13 23:57N 22°35' E 120°18'0 0.0
2018-Jul-13 23:21N 22°35' E 120°18'0 0.0
2018-Jul-13 22:49N 22°35' E 120°18'1 4.0
2018-Jul-13 22:31N 22°36' E 120°17'4 6.9
2018-Jul-13 21:59N 22°37' E 120°13'2 4.1
2018-Jul-13 21:30N 22°38' E 120°12'4 7.6
2018-Jul-13 21:00N 22°41' E 120°09'611.1
2018-Jul-13 20:30N 22°46' E 120°06'  
Track history (hours):
 
Tides and Currents Weather Stations Pressure Air Temp Water Temp Dewpoint Dewpoint Depression Visibility Wind Speed Wind Dir Waves Ship Positions

Hyundai Independence

Last reported at 2018-Jul-20 17:17 UTC. Time now 2018-Jul-22 14:29 UTC.
Position S 00°05' E 108°05'.

Length 275 m; beam 37 m; draft 14.02 m.

Type: Tanker. MMSI: 372424000.

Date/timePositionNaut miles runAvg speedWind from/ knotsBaromVisibWave heightAir tempDewpointWater temp
2018-Jul-20 17:17S 00°05' E 108°05'  
2018-Jul-14 21:19N 22°30' E 120°06'412.9
2018-Jul-14 21:00N 22°34' E 120°08'611.5
2018-Jul-14 20:28N 22°38' E 120°13'5 9.1
2018-Jul-14 19:59N 22°37' E 120°17'0 0.7
2018-Jul-14 19:22N 22°36' E 120°18'0 0.0
2018-Jul-14 18:59N 22°36' E 120°18'0 0.0
2018-Jul-14 18:27N 22°36' E 120°18'0 0.0
2018-Jul-14 18:00N 22°36' E 120°18'1 1.4
2018-Jul-14 17:29N 22°36' E 120°17'2 0.2
2018-Jul-14 10:27N 22°35' E 120°18'0 0.1
2018-Jul-14 09:57N 22°35' E 120°18'0 0.0
2018-Jul-14 09:27N 22°35' E 120°18'0 0.0
2018-Jul-14 08:57N 22°35' E 120°18'0 0.0
2018-Jul-14 08:27N 22°35' E 120°18'0 0.0
2018-Jul-14 07:57N 22°35' E 120°18'0 0.1
2018-Jul-14 06:57N 22°35' E 120°18'0 0.0
2018-Jul-14 05:33N 22°35' E 120°18'0 0.0
2018-Jul-14 05:21N 22°35' E 120°18'0 0.0
2018-Jul-14 04:51N 22°35' E 120°18'0 0.1
2018-Jul-14 04:15N 22°35' E 120°18'0 0.0
2018-Jul-14 01:33N 22°35' E 120°18'0 0.6
2018-Jul-14 01:27N 22°35' E 120°18'0 0.0
2018-Jul-14 00:57N 22°35' E 120°18'0 0.0
2018-Jul-14 00:27N 22°35' E 120°18'0 0.0
2018-Jul-13 23:57N 22°35' E 120°18'0 0.0
2018-Jul-13 23:21N 22°35' E 120°18'0 0.0
2018-Jul-13 22:49N 22°35' E 120°18'1 4.0
2018-Jul-13 22:31N 22°36' E 120°17'4 6.9
2018-Jul-13 21:59N 22°37' E 120°13'2 4.1
2018-Jul-13 21:30N 22°38' E 120°12'4 7.6
2018-Jul-13 21:00N 22°41' E 120°09'611.1
2018-Jul-13 20:30N 22°46' E 120°06'  

Dump ship's entire track history